首页
METAR-TAF:

METAR-TAF

机场 :

Hunter Army Airfield / Fort Stewart

薩凡納, 喬治亞, 美国

纬度: 32-01N, 经度: 081-09W, 海拔: 13米

当前天气观测

该预报发布于26分钟前的10:56 UTC
静风
温度 9°C
湿度 87%
气压 1016 hPa
能見度: 16.1公里
天空无云

METAR: KSVN 211056Z AUTO 00000KT 10SM CLR 09/07 A3001 RMK AO2 SLP165 T00910070

时间: 07:22 (11:22 UTC)

预报

该预报发布于7小时和22分钟前的04:00 UTC
预报有效从21日的 04点(UTC)到 22日的 10点(UTC)
风速9节,风向西转西北
能见度10公里或以上
多云层高于5000英尺
成为
从 21日的 14点(UTC)到 21日的 15点(UTC)
风速10节,风向西,有时为25节阵风
能见度10公里或以上
少量云层高于5000英尺
成为
从 21日的 23点(UTC)到 21日的 24点(UTC)
风速6节,风向北转西北
能见度10公里或以上
天空无云

TAF: KSVN 210400Z 2104/2210 30009KT 9999 BKN050 QNH2993INS BECMG 2114/2115 28010G25KT 9999 FEW050 QNH3000INS BECMG 2123/2124 34006KT 9999 SKC QNH3005INS TX24/2120Z TN09/2112Z

超过4000个机场的气象观测和天气预报(METAR&TAF报告)。

可查询的气象台以黄色和红色小点在地图上表示。

将鼠标移到小点上方,可查看气象台名称。

然后点击查看天气观测和预报。

如需切换地图:点击带黑十字的绿色按钮放大地图;点击带横线的绿色按钮缩小地图;或者点击绿色箭头查看邻近地区的地图。


METAR-TAF: